Grand Canyon National Park Airport
KGCN : now visible

Airfield :











YOU CAN JOIN US ON...

 
LOGIN :

Register | Disclaimer

   EN    FR    IT 

 









Legend :    VFR   Marginal VFR   IFR   Intensive IFR   Very Intensive IFR
Visi :
Ceiling :
>= 8 km
>= 3000ft
5 to 8 km
1000 to 3000 ft
1500m to 5 km
500 to 1000 ft
800 to 1500m
200 to 500 ft
< 800m
< 200 ft
Symbols :   Thunderstorms  Fog  Heavy snow  Heavy precipitations  Wind > 20 kt






- Airport Elevation : 6609 ft
- IATA code : GCN


KGCN - Grand Canyon National Park

CURRENT METAR :
  • 291754Z 19012G19KT 10SM CLR 01/M10 A2987 RMK AO2 SLP139 T00061100 10006 21200 50000

EXPIRED METARs :
  • 291654Z 19010KT 10SM CLR M01/M11 A2988 RMK AO2 SLP142 T10111111
  • 291554Z 00000KT 10SM CLR M13/M16 A2988 RMK AO2 SLP186 T11331161

TAF KGCN
Valid from the 29 at 18:00 until the 30 at 18:00 UTC


291739Z 2918/3018 20015G26KT P6SM SKC
FM300100 21013KT P6SM SKC
FM300700 20011KT P6SM BKN020
FM300800 21011KT 5SM -SHSN BR BKN015
FM301200 20007KT 5SM -SHSN BR OVC008
KZLA FIR / North America



MET'MAP, your aeronautical weather chart ! - Copyright ORBIFLY December 2007 - Disclaimer

ORBIFLY MET'MAP TEAM :

Programming & Development : Alexandra Zaïnal
Original concept : Baudouin d'Aumeries
Technical & hardware support : Manuel Goepfert
Assistance : Marc-Olivier Méhu




SOURCES & CREDITS :

   NOAA       Earth
Advisory